Time;durP1;ratioP1;P1;durP2;ratioP2;P2;SDS_P1;SDS_P2;PMS_P1;PMS_P2;Temp;Humidity;BMP_temperature;BMP_pressure;BME280_temperature;BME280_humidity;BME280_pressure;Samples;Min_cycle;Max_cycle;Signal;HPM_P1;HPM_P2
2023/08/01 00:00:00;;;;;;;2.40;2.07;;;27.20;81.80;;;;;;4977380;28;20516;-77
2023/08/01 00:02:28;;;;;;;6.53;2.13;;;27.20;81.80;;;;;;4973597;28;20447;-76
2023/08/01 00:04:57;;;;;;;5.03;2.37;;;27.20;81.80;;;;;;4972478;28;20488;-77
2023/08/01 00:07:25;;;;;;;1.77;1.77;;;27.20;81.60;;;;;;4979863;28;20466;-77
2023/08/01 00:09:53;;;;;;;2.37;1.83;;;27.20;81.70;;;;;;4976154;28;20500;-77
2023/08/01 00:12:21;;;;;;;5.80;2.00;;;27.20;81.30;;;;;;4972480;28;20551;-77
2023/08/01 00:14:49;;;;;;;3.27;2.07;;;27.20;81.30;;;;;;4975666;28;20469;-77
2023/08/01 00:17:17;;;;;;;4.37;2.00;;;27.20;81.30;;;;;;4968796;28;20477;-77
2023/08/01 00:19:45;;;;;;;2.13;2.03;;;27.20;81.40;;;;;;4970580;28;20454;-77
2023/08/01 00:22:14;;;;;;;1.90;1.80;;;27.20;81.10;;;;;;4976622;28;20469;-78
2023/08/01 00:24:42;;;;;;;2.10;2.00;;;27.20;81.10;;;;;;4978619;28;20536;-77
2023/08/01 00:27:10;;;;;;;3.47;2.30;;;27.20;81.00;;;;;;4975505;28;20532;-77
2023/08/01 00:29:38;;;;;;;7.03;2.10;;;27.20;80.90;;;;;;4969359;28;20471;-77
2023/08/01 00:32:06;;;;;;;2.83;1.70;;;27.20;80.90;;;;;;4980552;28;20536;-77
2023/08/01 00:34:34;;;;;;;1.90;1.80;;;27.20;80.90;;;;;;4968485;28;20525;-77
2023/08/01 00:37:02;;;;;;;3.27;1.77;;;27.20;81.20;;;;;;4975870;28;20466;-77
2023/08/01 00:39:31;;;;;;;1.90;1.80;;;27.20;80.80;;;;;;4975380;28;20529;-77
2023/08/01 00:41:59;;;;;;;2.00;1.90;;;27.20;80.50;;;;;;4975430;28;20553;-77
2023/08/01 00:44:27;;;;;;;3.63;1.97;;;27.20;80.80;;;;;;4975430;28;20549;-77
2023/08/01 00:46:54;;;;;;;1.80;1.70;;;27.20;80.90;;;;;;4980599;28;20468;-77
2023/08/01 00:49:22;;;;;;;3.67;2.10;;;27.20;81.20;;;;;;4975323;28;20494;-77
2023/08/01 00:51:50;;;;;;;2.10;1.97;;;27.20;80.40;;;;;;4977918;28;20449;-77
2023/08/01 00:54:17;;;;;;;1.90;1.80;;;27.20;80.50;;;;;;4975670;28;20925;-77
2023/08/01 00:56:46;;;;;;;3.27;2.07;;;27.20;80.50;;;;;;4975580;28;20528;-77
2023/08/01 00:59:14;;;;;;;1.73;1.63;;;27.20;80.20;;;;;;4969158;28;20541;-77
2023/08/01 01:01:42;;;;;;;2.50;1.90;;;27.20;80.20;;;;;;4973418;28;20466;-77
2023/08/01 01:04:10;;;;;;;5.20;2.00;;;27.10;79.80;;;;;;4983304;28;20445;-77
2023/08/01 01:06:40;;;;;;;1.93;1.83;;;27.10;79.70;;;;;;4975030;28;20529;-77
2023/08/01 01:09:16;;;;;;;2.03;1.93;;;27.10;79.40;;;;;;4983646;28;20491;-77
2023/08/01 01:11:44;;;;;;;9.30;2.20;;;27.10;79.60;;;;;;4983281;28;20891;-76
2023/08/01 01:14:13;;;;;;;4.50;2.13;;;27.10;79.90;;;;;;4974764;28;20557;-76
2023/08/01 01:16:41;;;;;;;3.33;2.50;;;27.10;80.20;;;;;;4975208;28;20449;-77
2023/08/01 01:19:09;;;;;;;2.47;2.30;;;27.10;80.60;;;;;;4989567;28;20458;-77
2023/08/01 01:21:40;;;;;;;3.23;1.97;;;27.10;80.50;;;;;;4974735;28;20577;-77
2023/08/01 01:24:09;;;;;;;3.03;1.87;;;27.10;80.30;;;;;;4967588;28;20470;-77
2023/08/01 01:26:36;;;;;;;2.00;1.90;;;27.10;79.80;;;;;;4969516;28;20526;-77
2023/08/01 01:29:05;;;;;;;2.20;2.00;;;27.10;80.20;;;;;;4981080;28;20545;-77
2023/08/01 01:31:34;;;;;;;3.73;2.20;;;27.00;79.90;;;;;;4975319;28;20909;-77
2023/08/01 01:34:02;;;;;;;3.37;2.47;;;27.10;80.20;;;;;;4958674;28;20504;-77
2023/08/01 01:36:30;;;;;;;5.77;2.50;;;27.00;79.80;;;;;;4962395;28;20468;-77
2023/08/01 01:38:59;;;;;;;4.27;2.70;;;27.00;79.70;;;;;;4974311;28;20485;-77
2023/08/01 01:41:26;;;;;;;2.90;2.60;;;27.10;79.70;;;;;;4969873;28;20475;-76
2023/08/01 01:43:54;;;;;;;2.37;2.20;;;27.00;79.50;;;;;;4972455;28;20537;-77
2023/08/01 01:46:22;;;;;;;3.33;2.50;;;27.00;79.60;;;;;;4966708;28;20525;-77
2023/08/01 01:48:50;;;;;;;2.97;2.77;;;27.00;79.60;;;;;;4974194;28;20878;-76
2023/08/01 01:51:18;;;;;;;2.70;2.50;;;27.00;79.60;;;;;;4975012;28;20473;-77
2023/08/01 01:53:46;;;;;;;4.80;3.00;;;26.90;79.20;;;;;;4974351;28;20478;-77
2023/08/01 01:56:15;;;;;;;4.20;2.87;;;26.90;79.70;;;;;;4973962;28;20461;-77
2023/08/01 01:58:43;;;;;;;3.00;2.73;;;26.90;79.50;;;;;;4974307;28;20473;-77
2023/08/01 02:01:11;;;;;;;4.30;2.80;;;26.90;79.40;;;;;;4974730;28;20481;-77
2023/08/01 02:03:39;;;;;;;3.17;2.87;;;26.90;79.60;;;;;;4974499;28;20799;-77
2023/08/01 02:06:07;;;;;;;2.80;2.60;;;26.90;79.60;;;;;;4966715;28;20454;-76
2023/08/01 02:08:35;;;;;;;4.63;2.60;;;26.90;79.30;;;;;;4974473;28;20473;-77
2023/08/01 02:11:04;;;;;;;6.63;2.80;;;26.90;79.20;;;;;;4958451;28;20475;-77
2023/08/01 02:13:33;;;;;;;3.30;2.90;;;26.90;79.20;;;;;;4974060;28;20515;-77
2023/08/01 02:16:02;;;;;;;2.70;2.60;;;26.90;79.40;;;;;;4966303;28;20447;-77
2023/08/01 02:18:30;;;;;;;3.43;3.13;;;26.90;79.80;;;;;;4963234;28;20417;-77
2023/08/01 02:20:58;;;;;;;4.40;2.73;;;26.90;79.10;;;;;;4975623;28;20489;-77
2023/08/01 02:23:25;;;;;;;2.87;2.67;;;26.80;79.00;;;;;;4978689;28;20441;-77
2023/08/01 02:25:53;;;;;;;3.17;2.60;;;26.80;79.10;;;;;;4977840;28;20484;-77
2023/08/01 02:28:21;;;;;;;2.60;2.50;;;26.80;79.10;;;;;;4974022;28;20474;-77
2023/08/01 02:30:51;;;;;;;3.60;2.37;;;26.90;78.70;;;;;;4973726;28;20477;-77
2023/08/01 02:33:19;;;;;;;5.23;2.40;;;26.90;78.90;;;;;;4973880;28;20466;-77
2023/08/01 02:35:47;;;;;;;2.33;2.23;;;26.90;79.20;;;;;;4973831;28;20446;-77
2023/08/01 02:38:15;;;;;;;2.27;2.17;;;26.90;78.90;;;;;;4965709;28;20501;-77
2023/08/01 02:40:43;;;;;;;2.93;2.73;;;26.90;78.80;;;;;;4973292;28;20526;-77
2023/08/01 02:43:11;;;;;;;3.00;2.80;;;26.80;78.80;;;;;;4955828;28;20478;-77
2023/08/01 02:45:39;;;;;;;2.43;2.30;;;26.90;78.80;;;;;;4955917;28;20493;-75
2023/08/01 02:48:08;;;;;;;2.90;2.70;;;26.80;78.70;;;;;;4970988;28;20450;-75
2023/08/01 02:50:36;;;;;;;2.60;2.50;;;26.90;78.70;;;;;;4973678;28;20462;-77
2023/08/01 02:53:05;;;;;;;2.53;2.40;;;26.80;78.90;;;;;;4973694;28;20415;-77
2023/08/01 02:55:33;;;;;;;2.70;2.50;;;26.80;78.60;;;;;;4973588;28;20481;-77
2023/08/01 02:58:01;;;;;;;3.20;2.10;;;26.80;78.90;;;;;;4964412;28;20957;-77
2023/08/01 03:00:31;;;;;;;2.73;2.63;;;26.80;78.70;;;;;;4957291;28;20566;-77
2023/08/01 03:02:59;;;;;;;2.57;2.47;;;26.90;78.50;;;;;;4966600;28;20462;-77
2023/08/01 03:05:28;;;;;;;2.57;2.37;;;26.90;78.60;;;;;;4971738;28;20460;-77
2023/08/01 03:07:56;;;;;;;2.60;2.50;;;26.90;78.60;;;;;;4973307;28;20470;-77
2023/08/01 03:10:24;;;;;;;2.27;2.17;;;26.80;78.30;;;;;;4965844;28;20465;-77
2023/08/01 03:13:04;;;;;;;2.93;2.73;;;26.90;78.50;;;;;;4973228;28;20438;-76
2023/08/01 03:15:31;;;;;;;3.20;2.57;;;26.80;78.50;;;;;;4973337;28;20478;-77
2023/08/01 03:17:59;;;;;;;2.30;2.20;;;26.80;78.30;;;;;;4973426;28;20533;-77
2023/08/01 03:20:28;;;;;;;2.50;2.40;;;26.80;77.90;;;;;;4972506;28;20451;-77
2023/08/01 03:22:57;;;;;;;2.40;2.20;;;26.80;78.00;;;;;;4972061;28;20481;-76
2023/08/01 03:25:24;;;;;;;2.40;2.20;;;26.80;77.90;;;;;;4972426;28;21037;-76
2023/08/01 03:27:52;;;;;;;3.30;2.23;;;26.80;77.90;;;;;;4964590;28;20438;-77
2023/08/01 03:30:20;;;;;;;4.63;2.20;;;26.80;78.00;;;;;;4972488;28;20453;-76
2023/08/01 03:32:48;;;;;;;3.47;2.33;;;26.90;77.90;;;;;;4978601;28;20459;-77
2023/08/01 03:35:17;;;;;;;2.50;2.30;;;26.80;77.80;;;;;;4962916;28;20478;-76
2023/08/01 03:37:47;;;;;;;3.03;2.60;;;26.80;78.00;;;;;;4959230;28;20479;-76
2023/08/01 03:40:15;;;;;;;2.63;2.50;;;26.80;77.60;;;;;;4969162;28;20498;-76
2023/08/01 03:42:44;;;;;;;2.33;2.17;;;26.80;77.80;;;;;;4977519;28;20513;-76
2023/08/01 03:45:12;;;;;;;2.30;2.20;;;26.70;77.80;;;;;;4972172;28;20446;-77
2023/08/01 03:47:39;;;;;;;3.00;2.70;;;26.80;78.00;;;;;;4972423;28;20525;-77
2023/08/01 03:50:08;;;;;;;2.30;2.20;;;26.80;77.90;;;;;;4963558;28;20524;-76
2023/08/01 03:52:36;;;;;;;2.77;2.60;;;26.70;78.00;;;;;;4969172;28;20525;-76
2023/08/01 03:55:06;;;;;;;2.37;2.17;;;26.70;78.30;;;;;;4962056;28;20471;-76
2023/08/01 03:57:34;;;;;;;2.70;2.50;;;26.70;78.00;;;;;;4971222;28;20534;-76
2023/08/01 04:00:02;;;;;;;2.33;2.23;;;26.70;78.00;;;;;;4964437;28;20458;-77
2023/08/01 04:02:30;;;;;;;2.50;2.40;;;26.70;78.00;;;;;;4975027;28;20450;-76
2023/08/01 04:04:58;;;;;;;2.07;1.90;;;26.70;78.00;;;;;;4976264;28;20484;-76
2023/08/01 04:07:26;;;;;;;2.13;2.03;;;26.70;78.20;;;;;;4975619;28;20430;-76
2023/08/01 04:09:54;;;;;;;2.30;2.20;;;26.70;77.80;;;;;;4975784;28;20486;-76
2023/08/01 04:12:23;;;;;;;2.40;2.30;;;26.70;77.70;;;;;;4976417;28;20454;-77
2023/08/01 04:14:51;;;;;;;2.60;2.50;;;26.70;77.90;;;;;;4980975;28;20564;-76
2023/08/01 04:17:20;;;;;;;2.70;2.50;;;26.70;77.90;;;;;;4967208;28;20453;-76
2023/08/01 04:19:47;;;;;;;2.93;2.70;;;26.70;77.80;;;;;;4975814;28;20462;-76
2023/08/01 04:22:16;;;;;;;2.40;2.30;;;26.70;77.70;;;;;;4974981;28;20445;-77
2023/08/01 04:24:43;;;;;;;2.53;2.33;;;26.70;77.60;;;;;;4970673;28;20545;-76
2023/08/01 04:27:11;;;;;;;2.37;2.27;;;26.70;77.70;;;;;;4966780;28;20469;-76
2023/08/01 04:29:41;;;;;;;5.23;2.50;;;26.70;77.60;;;;;;4963561;28;20919;-76
2023/08/01 04:32:10;;;;;;;2.23;2.13;;;26.70;77.60;;;;;;4971368;28;20429;-75
2023/08/01 04:34:38;;;;;;;2.70;2.50;;;26.70;77.90;;;;;;4975858;28;20580;-76
2023/08/01 04:37:06;;;;;;;2.23;2.13;;;26.70;77.30;;;;;;4974934;28;20480;-76
2023/08/01 04:39:34;;;;;;;2.60;2.40;;;26.80;77.50;;;;;;4975419;28;20489;-76
2023/08/01 04:42:03;;;;;;;2.03;1.93;;;26.80;77.10;;;;;;4959738;28;20553;-76
2023/08/01 04:44:31;;;;;;;3.03;1.97;;;26.70;77.20;;;;;;4959402;28;20525;-76
2023/08/01 04:47:00;;;;;;;4.03;2.50;;;26.80;77.50;;;;;;4974321;28;20546;-76
2023/08/01 04:49:28;;;;;;;2.50;2.30;;;26.80;77.20;;;;;;4966660;28;20468;-76
2023/08/01 04:51:56;;;;;;;2.60;2.40;;;26.80;77.10;;;;;;4974660;28;20499;-76
2023/08/01 04:54:24;;;;;;;6.20;2.10;;;26.80;76.90;;;;;;4964439;28;20952;-76
2023/08/01 04:56:52;;;;;;;3.03;2.30;;;26.80;76.80;;;;;;4969565;28;20505;-77
2023/08/01 04:59:20;;;;;;;2.53;2.37;;;26.80;76.90;;;;;;4973749;28;20486;-76
2023/08/01 05:01:48;;;;;;;2.30;2.20;;;26.80;76.90;;;;;;4974979;28;20460;-76
2023/08/01 05:04:18;;;;;;;2.57;2.37;;;26.80;76.70;;;;;;4979437;28;20470;-76
2023/08/01 05:06:46;;;;;;;5.73;2.50;;;26.80;76.80;;;;;;4971799;28;20425;-76
2023/08/01 05:09:14;;;;;;;1.90;1.80;;;26.80;76.90;;;;;;4972287;28;20462;-76
2023/08/01 05:11:42;;;;;;;2.50;2.30;;;26.80;76.60;;;;;;4965404;28;20473;-76
2023/08/01 05:14:10;;;;;;;6.20;2.20;;;26.80;76.50;;;;;;4974891;28;20477;-76
2023/08/01 05:16:37;;;;;;;2.80;2.07;;;26.80;76.50;;;;;;4973698;28;20554;-75
2023/08/01 05:19:06;;;;;;;2.30;2.17;;;26.80;76.30;;;;;;4974217;28;20986;-76
2023/08/01 05:21:35;;;;;;;2.50;2.30;;;26.80;76.20;;;;;;4974231;28;20525;-76
2023/08/01 05:24:03;;;;;;;2.47;2.27;;;26.90;76.10;;;;;;4976423;28;20460;-76
2023/08/01 05:26:31;;;;;;;3.07;2.33;;;26.80;75.80;;;;;;4974828;28;20505;-76
2023/08/01 05:28:59;;;;;;;3.00;1.87;;;26.90;75.90;;;;;;4974409;28;20517;-76
2023/08/01 05:31:27;;;;;;;2.50;2.00;;;26.90;75.40;;;;;;4980931;28;20441;-76
2023/08/01 05:33:55;;;;;;;2.20;2.10;;;26.90;75.20;;;;;;4968321;28;20926;-75
2023/08/01 05:36:23;;;;;;;2.60;2.50;;;27.00;75.60;;;;;;4967933;28;20573;-76
2023/08/01 05:38:53;;;;;;;3.80;2.37;;;27.00;75.00;;;;;;4975723;28;20542;-76
2023/08/01 05:41:21;;;;;;;2.40;2.30;;;27.00;75.70;;;;;;4966219;28;20447;-76
2023/08/01 05:43:49;;;;;;;2.47;2.37;;;27.00;74.60;;;;;;4974633;28;20448;-76
2023/08/01 05:46:17;;;;;;;2.37;1.90;;;27.00;75.30;;;;;;4974793;28;20466;-76
2023/08/01 05:48:45;;;;;;;1.97;1.87;;;27.00;74.20;;;;;;4979415;28;20424;-76
2023/08/01 05:51:13;;;;;;;3.67;2.73;;;27.00;74.30;;;;;;4974307;28;20525;-76
2023/08/01 05:53:43;;;;;;;2.37;2.27;;;27.00;74.00;;;;;;4967196;28;20485;-75
2023/08/01 05:56:12;;;;;;;2.43;2.30;;;27.10;74.00;;;;;;4973229;28;20481;-76
2023/08/01 05:58:40;;;;;;;3.60;2.83;;;27.10;73.70;;;;;;4972577;28;20454;-76
2023/08/01 06:01:09;;;;;;;3.20;2.07;;;27.10;73.20;;;;;;4973718;28;20498;-76
2023/08/01 06:03:37;;;;;;;4.93;2.30;;;27.10;73.10;;;;;;4972900;28;20442;-76
2023/08/01 06:06:05;;;;;;;2.80;2.60;;;27.10;73.30;;;;;;4973780;28;20438;-76
2023/08/01 06:08:33;;;;;;;2.33;2.23;;;27.00;73.00;;;;;;4966093;28;20482;-76
2023/08/01 06:11:00;;;;;;;2.50;2.40;;;27.10;73.40;;;;;;4973777;28;20505;-76
2023/08/01 06:13:29;;;;;;;2.33;2.23;;;27.10;73.30;;;;;;4964857;28;20445;-76
2023/08/01 06:15:57;;;;;;;3.73;2.10;;;27.10;73.10;;;;;;4976563;28;20544;-76
2023/08/01 06:18:25;;;;;;;2.00;1.90;;;27.10;73.00;;;;;;4981212;28;20481;-76
2023/08/01 06:20:53;;;;;;;2.40;2.20;;;27.10;72.90;;;;;;4973337;28;20496;-76
2023/08/01 06:23:21;;;;;;;2.10;2.00;;;27.10;72.70;;;;;;4964500;28;20470;-77
2023/08/01 06:25:49;;;;;;;2.40;2.30;;;27.00;72.90;;;;;;4979444;28;20438;-77
2023/08/01 06:28:17;;;;;;;2.17;1.97;;;27.00;72.80;;;;;;4973678;28;20429;-77
2023/08/01 06:30:46;;;;;;;2.33;2.13;;;27.00;72.90;;;;;;4973692;28;20478;-76
2023/08/01 06:33:14;;;;;;;2.30;2.20;;;27.00;72.90;;;;;;4973489;28;20878;-76
2023/08/01 06:35:42;;;;;;;2.33;2.23;;;27.00;72.90;;;;;;4962069;28;20454;-76
2023/08/01 06:38:10;;;;;;;2.07;1.97;;;27.10;72.60;;;;;;4964857;28;21007;-74
2023/08/01 06:40:37;;;;;;;2.20;2.10;;;27.10;72.70;;;;;;4973866;28;20484;-77
2023/08/01 06:43:06;;;;;;;1.70;1.70;;;27.20;72.20;;;;;;4972972;28;20438;-77
2023/08/01 06:45:33;;;;;;;2.20;2.10;;;27.30;72.10;;;;;;4974505;28;20464;-76
2023/08/01 06:48:03;;;;;;;2.30;2.10;;;27.30;71.90;;;;;;4974546;28;20489;-77
2023/08/01 06:50:31;;;;;;;2.43;2.33;;;27.30;71.60;;;;;;4973133;28;20462;-77
2023/08/01 06:53:00;;;;;;;2.20;2.10;;;27.30;71.50;;;;;;4973045;28;20444;-76
2023/08/01 06:55:27;;;;;;;2.57;2.03;;;27.30;71.30;;;;;;4972649;28;20446;-77
2023/08/01 06:57:55;;;;;;;2.10;2.00;;;27.30;71.40;;;;;;4974278;28;20436;-77
2023/08/01 07:00:23;;;;;;;1.93;1.83;;;27.30;71.30;;;;;;4976745;28;20560;-77
2023/08/01 07:02:51;;;;;;;4.37;2.00;;;27.20;71.50;;;;;;4974855;28;20466;-77
2023/08/01 07:05:21;;;;;;;2.33;2.20;;;27.30;71.10;;;;;;4974894;28;20454;-77
2023/08/01 07:07:48;;;;;;;2.10;2.00;;;27.20;71.00;;;;;;4986874;28;20505;-77
2023/08/01 07:10:17;;;;;;;1.70;1.60;;;27.20;70.80;;;;;;4980011;28;20486;-77
2023/08/01 07:12:45;;;;;;;3.37;2.20;;;27.20;71.00;;;;;;4970864;28;20504;-77
2023/08/01 07:15:13;;;;;;;3.97;1.90;;;27.20;70.60;;;;;;4980636;28;20453;-77
2023/08/01 07:17:41;;;;;;;2.13;1.93;;;27.20;70.70;;;;;;4974274;28;20572;-77
2023/08/01 07:20:10;;;;;;;1.87;1.77;;;27.20;70.50;;;;;;4974631;28;20436;-77
2023/08/01 07:22:39;;;;;;;2.40;1.67;;;27.30;70.40;;;;;;4973335;28;20446;-77
2023/08/01 07:25:07;;;;;;;3.10;1.77;;;27.30;70.20;;;;;;4973768;28;20538;-77
2023/08/01 07:27:38;;;;;;;3.00;1.73;;;27.30;69.90;;;;;;4973059;28;20521;-78
2023/08/01 07:30:08;;;;;;;4.30;2.03;;;27.30;70.20;;;;;;4965992;28;20478;-80
2023/08/01 07:32:36;;;;;;;7.30;2.20;;;27.40;70.00;;;;;;4983923;28;20605;-80
2023/08/01 07:35:05;;;;;;;5.27;2.00;;;27.50;69.80;;;;;;4977203;28;20408;-80
2023/08/01 07:37:34;;;;;;;4.23;1.93;;;27.60;69.50;;;;;;4983068;28;20478;-80
2023/08/01 07:40:04;;;;;;;3.33;1.87;;;27.60;68.90;;;;;;4976834;28;20437;-80
2023/08/01 07:42:32;;;;;;;9.07;2.60;;;27.70;69.10;;;;;;4975936;28;20493;-80
2023/08/01 07:45:00;;;;;;;8.63;1.90;;;27.70;68.50;;;;;;4970131;28;20908;-80
2023/08/01 07:47:27;;;;;;;7.23;2.13;;;27.70;68.40;;;;;;4968928;28;20526;-80
2023/08/01 07:49:56;;;;;;;3.97;1.77;;;27.80;68.40;;;;;;4976533;28;20500;-80
2023/08/01 07:52:24;;;;;;;5.40;1.90;;;27.90;68.40;;;;;;4976975;28;20478;-80
2023/08/01 07:54:53;;;;;;;4.10;1.90;;;27.90;68.20;;;;;;4968922;28;20501;-80
2023/08/01 07:57:22;;;;;;;7.07;1.60;;;28.00;67.90;;;;;;4974467;28;20473;-80
2023/08/01 07:59:50;;;;;;;8.30;1.80;;;28.00;67.30;;;;;;4971973;28;20549;-80
2023/08/01 08:02:18;;;;;;;2.30;1.90;;;28.00;67.20;;;;;;4964672;28;20630;-80
2023/08/01 08:04:46;;;;;;;3.37;1.70;;;28.00;67.90;;;;;;4965879;28;20493;-80
2023/08/01 08:07:14;;;;;;;5.23;1.87;;;28.00;67.20;;;;;;4962069;28;20502;-80
2023/08/01 08:09:44;;;;;;;6.30;1.87;;;28.10;67.80;;;;;;4957973;28;20471;-80
2023/08/01 08:12:12;;;;;;;3.07;1.60;;;28.10;67.70;;;;;;4963137;28;20470;-79
2023/08/01 08:14:42;;;;;;;3.00;1.80;;;28.20;67.30;;;;;;4982313;28;20484;-80
2023/08/01 08:17:10;;;;;;;2.80;2.00;;;28.20;67.50;;;;;;4974764;28;20510;-80
2023/08/01 08:19:38;;;;;;;3.43;1.80;;;28.20;67.40;;;;;;4975264;28;20484;-80
2023/08/01 08:22:08;;;;;;;3.00;1.80;;;28.30;67.20;;;;;;4975797;28;20972;-80
2023/08/01 08:24:36;;;;;;;3.07;1.80;;;28.30;67.00;;;;;;4974684;28;20537;-79
2023/08/01 08:27:05;;;;;;;5.50;2.00;;;28.30;66.80;;;;;;4963946;28;20526;-80
2023/08/01 08:29:34;;;;;;;4.67;1.60;;;28.20;66.60;;;;;;4975862;28;20505;-79
2023/08/01 08:32:04;;;;;;;5.73;1.73;;;28.20;66.60;;;;;;4975978;28;20477;-80
2023/08/01 08:34:32;;;;;;;3.67;2.00;;;28.20;66.50;;;;;;4976172;28;20462;-80
2023/08/01 08:37:00;;;;;;;4.80;1.70;;;28.30;66.80;;;;;;4982192;28;20557;-80
2023/08/01 08:39:28;;;;;;;2.20;1.50;;;28.30;66.80;;;;;;4977974;28;20536;-80
2023/08/01 08:41:56;;;;;;;1.60;1.50;;;28.40;66.60;;;;;;4967508;28;20948;-80
2023/08/01 08:44:25;;;;;;;2.33;1.70;;;28.50;66.40;;;;;;4968354;28;20462;-80
2023/08/01 08:46:54;;;;;;;2.33;1.47;;;28.50;66.30;;;;;;4979920;28;20431;-80
2023/08/01 08:49:24;;;;;;;2.77;1.87;;;28.60;65.80;;;;;;5005981;22;20986;-82
2023/08/01 08:51:51;;;;;;;1.73;1.63;;;28.60;65.50;;;;;;5014637;28;20428;-81
2023/08/01 08:54:20;;;;;;;2.20;1.97;;;28.50;65.60;;;;;;5013966;28;20431;-79
2023/08/01 08:56:48;;;;;;;2.13;1.47;;;28.50;65.60;;;;;;5020185;28;20467;-79
2023/08/01 08:59:16;;;;;;;1.67;1.40;;;28.60;66.00;;;;;;5005694;28;20469;-79
2023/08/01 09:01:44;;;;;;;2.30;1.47;;;28.70;65.30;;;;;;4992068;28;20447;-79
2023/08/01 09:04:13;;;;;;;2.00;1.60;;;28.70;65.30;;;;;;5002727;28;20442;-80
2023/08/01 09:06:45;;;;;;;1.80;1.70;;;28.70;64.80;;;;;;5001520;28;20484;-79
2023/08/01 09:09:18;;;;;;;2.90;1.40;;;28.60;65.00;;;;;;5004524;28;20476;-80
2023/08/01 09:11:48;;;;;;;3.60;1.50;;;28.50;64.90;;;;;;5004599;28;20464;-81
2023/08/01 09:14:17;;;;;;;1.70;1.60;;;28.50;64.80;;;;;;5003461;28;20524;-80
2023/08/01 09:16:45;;;;;;;1.90;1.80;;;28.50;64.90;;;;;;4997615;28;20541;-79
2023/08/01 09:19:17;;;;;;;1.97;1.50;;;28.40;64.60;;;;;;5001889;28;20433;-80
2023/08/01 09:21:46;;;;;;;1.50;1.40;;;28.50;65.00;;;;;;4994327;28;20449;-80
2023/08/01 09:24:15;;;;;;;1.53;1.40;;;28.60;64.70;;;;;;5001959;28;20433;-80
2023/08/01 09:26:43;;;;;;;2.20;1.60;;;28.70;64.30;;;;;;5001563;28;20460;-80
2023/08/01 09:29:10;;;;;;;2.30;1.80;;;28.80;63.70;;;;;;5006795;28;20453;-79
2023/08/01 09:31:39;;;;;;;2.23;1.50;;;28.80;63.60;;;;;;5009047;28;20510;-80
2023/08/01 09:34:18;;;;;;;1.73;1.47;;;28.80;63.40;;;;;;5007805;28;20434;-80
2023/08/01 09:36:48;;;;;;;1.57;1.40;;;28.80;63.40;;;;;;5001985;28;20441;-80
2023/08/01 09:39:17;;;;;;;1.50;1.40;;;28.90;63.60;;;;;;5000961;28;20548;-80
2023/08/01 09:41:45;;;;;;;1.63;1.53;;;28.90;63.30;;;;;;4999575;28;20511;-80
2023/08/01 09:44:13;;;;;;;1.50;1.40;;;29.00;63.20;;;;;;5000512;28;20521;-80
2023/08/01 09:46:42;;;;;;;1.60;1.50;;;29.10;63.50;;;;;;5001027;28;20472;-81
2023/08/01 09:49:10;;;;;;;1.60;1.50;;;29.30;63.20;;;;;;5000678;28;20445;-80
2023/08/01 09:51:48;;;;;;;4.20;1.43;;;29.40;61.90;;;;;;5000787;28;20462;-80
2023/08/01 09:54:16;;;;;;;1.60;1.50;;;29.40;61.50;;;;;;5000628;28;20440;-81
2023/08/01 09:56:45;;;;;;;1.60;1.50;;;29.30;61.30;;;;;;5000238;28;20463;-81
2023/08/01 09:59:16;;;;;;;1.87;1.60;;;29.20;61.30;;;;;;4999433;28;20480;-80
2023/08/01 10:01:44;;;;;;;2.20;1.40;;;29.10;62.30;;;;;;5010944;28;20932;-80
2023/08/01 10:04:12;;;;;;;2.07;1.90;;;29.00;61.50;;;;;;5000179;28;20501;-80
2023/08/01 10:06:42;;;;;;;1.40;1.30;;;28.90;61.80;;;;;;4998851;28;20502;-79
2023/08/01 10:09:13;;;;;;;2.30;1.20;;;28.90;62.00;;;;;;4999892;28;20452;-80
2023/08/01 10:11:41;;;;;;;4.00;2.00;;;28.90;62.70;;;;;;5003049;28;20466;-81
2023/08/01 10:14:09;;;;;;;3.73;1.73;;;28.90;62.40;;;;;;4996531;28;20523;-80
2023/08/01 10:16:36;;;;;;;12.03;1.90;;;28.90;62.40;;;;;;4997568;28;20450;-81
2023/08/01 10:19:06;;;;;;;12.33;1.77;;;28.90;62.50;;;;;;5003871;28;20472;-81
2023/08/01 10:21:34;;;;;;;8.03;1.77;;;28.90;63.30;;;;;;5001924;28;20472;-81
2023/08/01 10:24:01;;;;;;;3.00;1.50;;;29.20;63.40;;;;;;4991470;28;20472;-81
2023/08/01 10:26:31;;;;;;;3.47;1.70;;;29.30;62.00;;;;;;5003692;28;20883;-79
2023/08/01 10:29:01;;;;;;;2.73;1.80;;;29.30;61.90;;;;;;4997629;28;20531;-81
2023/08/01 10:31:28;;;;;;;4.77;1.87;;;29.30;62.30;;;;;;4998703;28;20872;-79
2023/08/01 10:34:04;;;;;;;5.53;1.80;;;29.30;61.80;;;;;;4987483;28;20453;-81
2023/08/01 10:36:32;;;;;;;5.20;1.60;;;29.20;61.80;;;;;;4992453;28;20433;-80
2023/08/01 10:39:02;;;;;;;2.00;1.40;;;29.10;62.10;;;;;;4988874;28;20905;-80
2023/08/01 10:41:33;;;;;;;4.00;1.57;;;29.10;61.90;;;;;;4996287;28;20437;-81
2023/08/01 10:44:08;;;;;;;3.13;1.70;;;29.00;62.20;;;;;;5001003;28;20536;-79
2023/08/01 10:46:49;;;;;;;8.13;1.53;;;29.20;62.70;;;;;;4998513;28;21002;-80
2023/08/01 10:49:17;;;;;;;3.53;1.87;;;29.20;62.40;;;;;;4993519;28;20474;-80
2023/08/01 10:51:45;;;;;;;3.10;1.97;;;29.20;61.90;;;;;;4994616;28;20445;-80
2023/08/01 10:54:20;;;;;;;2.00;1.90;;;29.20;61.90;;;;;;4989484;28;20457;-80
2023/08/01 10:56:50;;;;;;;3.43;2.27;;;29.10;61.90;;;;;;4996223;28;20464;-83
2023/08/01 10:59:18;;;;;;;2.17;1.90;;;29.10;61.90;;;;;;5001050;28;20507;-82
2023/08/01 11:01:46;;;;;;;4.27;2.17;;;29.20;62.00;;;;;;4994312;28;20438;-80
2023/08/01 11:04:16;;;;;;;2.10;1.90;;;29.30;61.70;;;;;;4997497;28;20441;-85
2023/08/01 11:06:45;;;;;;;3.73;2.17;;;29.40;61.90;;;;;;5001462;28;20472;-82
2023/08/01 11:21:30;;;;;;;2.80;2.10;;;29.50;61.30;;;;;;5010615;28;20455;-84
2023/08/01 11:24:24;;;;;;;2.20;2.00;;;29.40;60.90;;;;;;4950958;29;20446;-81
2023/08/01 11:27:37;;;;;;;5.80;1.87;;;29.30;60.90;;;;;;4978263;28;20580;-86
2023/08/01 11:30:42;;;;;;;2.73;1.80;;;29.30;61.40;;;;;;5007293;28;20455;-82
2023/08/01 11:33:21;;;;;;;2.33;1.90;;;29.20;61.20;;;;;;5016103;28;20440;-79
2023/08/01 11:35:52;;;;;;;2.20;2.10;;;29.10;61.20;;;;;;5030083;28;20430;-81
2023/08/01 11:38:21;;;;;;;2.03;1.83;;;29.00;61.10;;;;;;5022984;28;20478;-81
2023/08/01 11:40:50;;;;;;;3.27;2.23;;;29.00;61.40;;;;;;5017413;28;20474;-81
2023/08/01 11:43:33;;;;;;;2.40;2.20;;;28.90;61.30;;;;;;5019806;28;20451;-81
2023/08/01 11:46:10;;;;;;;5.43;2.47;;;28.90;61.80;;;;;;5021865;28;20484;-82
2023/08/01 11:48:55;;;;;;;2.03;1.93;;;28.90;61.80;;;;;;5026897;28;20444;-82
2023/08/01 11:51:59;;;;;;;4.30;2.23;;;28.80;61.80;;;;;;5010850;28;20508;-84
2023/08/01 11:54:55;;;;;;;2.60;2.33;;;28.70;62.00;;;;;;5021222;28;20479;-80
2023/08/01 11:58:39;;;;;;;3.00;2.27;;;28.70;62.20;;;;;;5015120;28;20452;-81
2023/08/01 12:02:25;;;;;;;;;;;;;;;;;;;;;
2023/08/01 12:05:58;;;;;;;2.20;2.10;;;29.30;62.80;;;;;;4964639;28;20440;-82
2023/08/01 12:09:15;;;;;;;2.60;2.40;;;29.80;62.20;;;;;;5010224;28;20503;-82
2023/08/01 12:16:08;;;;;;;2.00;1.73;;;30.50;60.30;;;;;;4953297;28;20432;-81
2023/08/01 12:18:57;;;;;;;2.00;1.90;;;30.70;59.20;;;;;;5019841;28;20488;-82
2023/08/01 12:22:38;;;;;;;2.60;2.07;;;30.50;58.70;;;;;;5024731;28;20443;-82
2023/08/01 12:25:12;;;;;;;2.40;2.30;;;30.30;59.70;;;;;;5020187;28;20520;-80
2023/08/01 12:27:41;;;;;;;2.47;2.27;;;30.10;59.40;;;;;;5018683;28;20448;-80
2023/08/01 12:30:10;;;;;;;2.33;2.13;;;29.90;59.40;;;;;;5022637;28;20467;-80
2023/08/01 12:32:38;;;;;;;1.70;1.60;;;29.80;59.80;;;;;;5015431;28;20448;-83
2023/08/01 12:35:07;;;;;;;1.90;1.77;;;29.60;59.80;;;;;;5024969;28;20456;-81
2023/08/01 12:37:35;;;;;;;2.70;2.50;;;29.50;60.20;;;;;;5026930;28;20457;-82
2023/08/01 12:40:05;;;;;;;2.10;2.00;;;29.40;60.30;;;;;;5028557;28;20483;-83
2023/08/01 12:42:35;;;;;;;2.87;2.40;;;29.30;60.80;;;;;;5028031;28;20613;-81
2023/08/01 12:45:08;;;;;;;2.00;1.80;;;29.30;61.10;;;;;;5029617;28;20439;-83
2023/08/01 12:47:39;;;;;;;2.00;1.90;;;29.30;61.30;;;;;;5031838;28;20448;-82
2023/08/01 12:50:21;;;;;;;2.20;2.10;;;29.40;61.60;;;;;;5026033;28;20460;-82
2023/08/01 13:04:07;;;;;;;2.30;2.20;;;30.00;61.50;;;;;;4914481;29;20455;-82
2023/08/01 13:07:34;;;;;;;;;;;;;;;;;;;;;
2023/08/01 13:11:00;;;;;;;;;;;;;;;;;;;;;
2023/08/01 13:17:18;;;;;;;1.87;1.77;;;30.20;60.00;;;;;;4887677;29;20474;-83
2023/08/01 13:20:09;;;;;;;2.00;1.80;;;30.20;60.60;;;;;;4898621;29;20495;-84
2023/08/01 13:22:39;;;;;;;4.13;2.57;;;30.40;60.30;;;;;;4941090;29;20440;-82
2023/08/01 13:25:08;;;;;;;3.47;1.87;;;30.20;58.80;;;;;;4940188;29;20444;-80
2023/08/01 13:27:36;;;;;;;3.07;1.20;;;29.00;60.20;;;;;;4944626;29;20468;-80
2023/08/01 13:30:04;;;;;;;3.50;1.80;;;29.30;62.40;;;;;;4951644;29;20487;-80
2023/08/01 13:32:33;;;;;;;2.00;1.47;;;29.50;61.40;;;;;;4935220;29;20435;-80
2023/08/01 13:35:01;;;;;;;2.90;1.20;;;29.70;60.90;;;;;;5022351;28;20430;-79
2023/08/01 13:37:30;;;;;;;1.83;1.40;;;29.70;60.60;;;;;;5028414;28;20439;-80
2023/08/01 13:39:58;;;;;;;1.40;1.30;;;30.50;60.40;;;;;;5018507;28;20499;-80